Time;durP1;ratioP1;P1;durP2;ratioP2;P2;SDS_P1;SDS_P2;PMS_P1;PMS_P2;Temp;Humidity;BMP_temperature;BMP_pressure;BME280_temperature;BME280_humidity;BME280_pressure;Samples;Min_cycle;Max_cycle;Signal;HPM_P1;HPM_P2
2021/04/29 00:00:20;;;;;;;4.82;2.17;;;15.30;65.10;;;;;;2473477;52;20943;-65
2021/04/29 00:02:47;;;;;;;4.30;2.10;;;15.30;65.30;;;;;;2366409;55;20945;-69
2021/04/29 00:05:15;;;;;;;4.30;2.47;;;15.30;65.60;;;;;;2363170;54;21028;-66
2021/04/29 00:07:42;;;;;;;4.22;1.80;;;15.30;65.90;;;;;;2363357;53;21544;-67
2021/04/29 00:10:11;;;;;;;4.62;2.00;;;15.30;66.00;;;;;;2363667;54;20971;-68
2021/04/29 00:12:37;;;;;;;5.07;1.85;;;15.30;66.40;;;;;;2364243;53;20951;-68
2021/04/29 00:15:06;;;;;;;3.03;1.73;;;15.30;66.60;;;;;;2363190;54;20956;-67
2021/04/29 00:17:33;;;;;;;3.37;1.73;;;15.30;66.80;;;;;;2361201;53;21039;-68
2021/04/29 00:19:59;;;;;;;3.25;1.70;;;15.30;67.00;;;;;;2361240;53;21016;-66
2021/04/29 00:22:26;;;;;;;2.80;1.60;;;15.30;67.00;;;;;;2495495;52;20936;-68
2021/04/29 00:24:52;;;;;;;2.70;1.30;;;15.30;67.10;;;;;;2360860;53;20967;-67
2021/04/29 00:27:18;;;;;;;3.20;1.60;;;15.30;67.10;;;;;;2361537;54;20967;-68
2021/04/29 00:29:44;;;;;;;2.20;1.17;;;15.30;67.20;;;;;;2360856;53;22030;-68
2021/04/29 00:32:11;;;;;;;2.72;1.15;;;15.30;67.20;;;;;;2358663;53;20955;-66
2021/04/29 00:34:37;;;;;;;2.42;1.10;;;15.30;67.20;;;;;;2361238;54;20944;-69
2021/04/29 00:37:03;;;;;;;3.92;1.33;;;15.30;67.30;;;;;;2357693;54;20981;-67
2021/04/29 00:39:29;;;;;;;2.30;1.25;;;15.30;67.30;;;;;;2361270;53;20956;-69
2021/04/29 00:41:55;;;;;;;2.62;1.27;;;15.30;67.30;;;;;;2603146;52;20936;-66
2021/04/29 00:44:23;;;;;;;2.62;1.40;;;15.30;67.40;;;;;;2591914;52;21405;-67
2021/04/29 00:46:49;;;;;;;2.67;1.33;;;15.30;67.40;;;;;;2358080;54;21406;-67
2021/04/29 00:49:16;;;;;;;3.03;1.37;;;15.20;67.30;;;;;;2520317;52;20928;-69
2021/04/29 00:51:43;;;;;;;3.80;1.40;;;15.20;67.50;;;;;;2343269;53;20927;-68
2021/04/29 00:54:09;;;;;;;2.35;1.12;;;15.20;67.50;;;;;;2588926;52;20952;-67
2021/04/29 00:56:35;;;;;;;2.90;1.40;;;15.20;67.70;;;;;;2361829;53;20963;-68
2021/04/29 00:59:01;;;;;;;2.78;1.20;;;15.10;67.70;;;;;;2344196;53;20984;-68
2021/04/29 01:01:27;;;;;;;2.40;1.23;;;15.10;67.90;;;;;;2362152;54;21813;-68
2021/04/29 01:04:10;;;;;;;5.45;1.60;;;15.10;68.00;;;;;;2397784;52;20928;-69
2021/04/29 01:06:48;;;;;;;2.95;1.40;;;15.10;68.20;;;;;;2358572;54;20920;-69
2021/04/29 01:09:21;;;;;;;3.55;1.60;;;15.00;68.00;;;;;;2454313;52;20993;-68
2021/04/29 01:11:48;;;;;;;;;;;15.00;68.10;;;;;;2354736;53;21059;-68
2021/04/29 01:14:14;;;;;;;3.40;1.60;;;14.90;67.50;;;;;;2363844;53;20058;-67
2021/04/29 01:16:42;;;;;;;2.78;1.40;;;14.90;68.10;;;;;;2612396;52;21827;-69
2021/04/29 01:19:09;;;;;;;5.07;1.60;;;14.90;68.40;;;;;;2361980;53;20990;-68
2021/04/29 01:21:35;;;;;;;3.60;1.40;;;14.80;68.50;;;;;;2365201;53;20963;-65
2021/04/29 01:24:15;;;;;;;2.55;1.37;;;14.80;68.70;;;;;;2612325;52;20955;-66
2021/04/29 01:26:45;;;;;;;2.00;1.10;;;14.80;69.00;;;;;;2361603;53;20942;-67
2021/04/29 01:29:16;;;;;;;3.78;1.23;;;14.80;69.10;;;;;;2362037;53;20975;-66
2021/04/29 01:31:43;;;;;;;2.83;1.20;;;14.80;69.30;;;;;;2610827;52;20936;-67
2021/04/29 01:34:11;;;;;;;2.85;1.42;;;14.80;69.40;;;;;;2354272;53;21536;-69
2021/04/29 01:36:37;;;;;;;3.00;1.60;;;14.80;69.50;;;;;;2344717;53;20947;-68
2021/04/29 01:39:08;;;;;;;3.10;1.27;;;14.80;69.50;;;;;;2359885;54;21497;-67
2021/04/29 01:41:38;;;;;;;2.75;1.30;;;14.80;69.60;;;;;;2578606;52;20982;-67
2021/04/29 01:44:05;;;;;;;2.60;1.40;;;14.80;69.70;;;;;;2348828;53;21397;-68
2021/04/29 01:46:32;;;;;;;2.70;1.60;;;14.80;69.70;;;;;;2439138;52;20944;-68
2021/04/29 01:49:00;;;;;;;3.70;1.80;;;14.80;69.70;;;;;;2360227;54;21448;-67
2021/04/29 01:51:26;;;;;;;3.12;1.42;;;14.80;70.40;;;;;;2564276;52;20968;-68
2021/04/29 01:53:52;;;;;;;2.90;1.52;;;14.80;69.70;;;;;;2361388;54;20900;-65
2021/04/29 01:56:19;;;;;;;2.85;1.62;;;14.90;69.90;;;;;;2429685;52;21071;-67
2021/04/29 01:58:45;;;;;;;3.47;1.87;;;14.90;69.80;;;;;;2349686;53;21603;-66
2021/04/29 02:01:11;;;;;;;3.95;2.10;;;14.90;69.80;;;;;;2350308;53;20951;-66
2021/04/29 02:03:38;;;;;;;3.78;1.85;;;14.90;69.80;;;;;;2589756;52;21041;-68
2021/04/29 02:06:07;;;;;;;3.05;1.50;;;14.90;69.80;;;;;;2340102;53;21605;-67
2021/04/29 02:08:33;;;;;;;3.35;1.77;;;14.90;69.80;;;;;;2350218;53;20961;-66
2021/04/29 02:11:00;;;;;;;3.22;1.55;;;14.90;69.80;;;;;;2348059;53;20975;-66
2021/04/29 02:13:27;;;;;;;3.78;1.60;;;14.90;69.70;;;;;;2348467;54;20915;-67
2021/04/29 02:16:18;;;;;;;3.40;1.67;;;14.90;69.70;;;;;;2344308;54;21009;-65
2021/04/29 02:18:51;;;;;;;2.87;1.50;;;14.90;69.60;;;;;;2345652;53;20925;-68
2021/04/29 02:21:19;;;;;;;2.75;1.37;;;14.90;69.50;;;;;;2342962;54;20990;-68
2021/04/29 02:23:48;;;;;;;3.00;1.40;;;14.90;69.50;;;;;;2330269;53;20942;-66
2021/04/29 02:26:16;;;;;;;2.58;1.40;;;14.90;69.40;;;;;;2357675;53;20944;-66
2021/04/29 02:28:42;;;;;;;2.58;1.30;;;14.90;69.40;;;;;;2366145;54;20980;-67
2021/04/29 02:31:09;;;;;;;4.55;1.37;;;14.90;69.40;;;;;;2350117;53;21036;-67
2021/04/29 02:33:37;;;;;;;2.67;1.37;;;14.90;69.30;;;;;;2361985;53;21063;-67
2021/04/29 02:36:05;;;;;;;3.10;1.40;;;14.90;69.30;;;;;;2360802;54;21840;-67
2021/04/29 02:38:31;;;;;;;3.17;1.23;;;14.90;69.30;;;;;;2617941;52;20916;-69
2021/04/29 02:41:00;;;;;;;3.00;1.30;;;14.90;69.30;;;;;;2346627;54;21737;-69
2021/04/29 02:43:26;;;;;;;3.33;1.40;;;14.90;69.20;;;;;;2617655;52;20924;-65
2021/04/29 02:45:54;;;;;;;3.70;1.10;;;14.90;69.20;;;;;;2360355;53;21004;-67
2021/04/29 02:48:22;;;;;;;2.90;1.40;;;14.90;69.10;;;;;;2352425;53;20943;-68
2021/04/29 02:50:48;;;;;;;5.85;1.25;;;14.90;69.00;;;;;;2366580;54;20959;-68
2021/04/29 02:53:16;;;;;;;3.08;1.30;;;14.80;68.90;;;;;;2366550;54;21019;-65
2021/04/29 02:55:43;;;;;;;4.30;1.20;;;14.80;68.90;;;;;;2365544;53;20923;-66
2021/04/29 02:58:11;;;;;;;2.30;1.02;;;14.80;68.80;;;;;;2363314;54;21052;-67
2021/04/29 03:00:37;;;;;;;2.62;1.20;;;14.80;68.80;;;;;;2350080;53;21034;-68
2021/04/29 03:03:05;;;;;;;2.40;1.20;;;14.80;68.80;;;;;;2366508;54;20976;-66
2021/04/29 03:05:31;;;;;;;2.80;1.45;;;14.80;68.90;;;;;;2366812;54;21008;-66
2021/04/29 03:07:58;;;;;;;2.50;1.30;;;14.70;68.70;;;;;;2365952;54;21000;-66
2021/04/29 03:10:25;;;;;;;2.35;1.00;;;14.70;68.70;;;;;;2366671;54;20888;-67
2021/04/29 03:12:51;;;;;;;2.70;1.23;;;14.70;68.80;;;;;;2365960;53;20919;-65
2021/04/29 03:15:17;;;;;;;2.50;1.20;;;14.70;68.70;;;;;;2364755;54;21515;-67
2021/04/29 03:17:43;;;;;;;3.60;1.15;;;14.70;68.80;;;;;;2445047;52;20935;-68
2021/04/29 03:20:22;;;;;;;2.40;1.30;;;14.70;68.80;;;;;;2366061;54;20963;-65
2021/04/29 03:22:48;;;;;;;2.12;1.10;;;14.70;68.70;;;;;;2580275;52;20971;-65
2021/04/29 03:25:15;;;;;;;2.42;1.20;;;14.70;68.70;;;;;;2355328;54;21000;-66
2021/04/29 03:27:43;;;;;;;2.40;1.20;;;14.60;68.50;;;;;;2355418;53;21947;-66
2021/04/29 03:30:09;;;;;;;3.17;1.12;;;14.60;68.50;;;;;;2366089;53;20996;-66
2021/04/29 03:32:35;;;;;;;2.50;1.33;;;14.60;68.50;;;;;;2366601;53;20939;-68
2021/04/29 03:35:03;;;;;;;2.70;1.30;;;14.60;68.50;;;;;;2348543;53;20927;-68
2021/04/29 03:37:29;;;;;;;3.95;1.35;;;14.60;68.40;;;;;;2365938;54;21014;-68
2021/04/29 03:39:55;;;;;;;3.53;1.30;;;14.60;68.40;;;;;;2366026;53;20951;-69
2021/04/29 03:42:22;;;;;;;3.45;1.20;;;14.60;68.50;;;;;;2365818;53;20992;-68
2021/04/29 03:44:48;;;;;;;2.83;1.23;;;14.50;68.30;;;;;;2351396;53;20967;-65
2021/04/29 03:47:14;;;;;;;2.47;1.20;;;14.50;68.30;;;;;;2360906;53;20998;-65
2021/04/29 03:49:42;;;;;;;3.10;1.40;;;14.50;68.20;;;;;;2365179;53;20917;-68
2021/04/29 03:52:10;;;;;;;2.80;1.12;;;14.50;68.20;;;;;;2369712;53;20983;-68
2021/04/29 03:54:36;;;;;;;2.80;1.48;;;14.40;68.00;;;;;;2365084;53;21681;-68
2021/04/29 03:57:03;;;;;;;5.75;1.62;;;14.40;68.00;;;;;;2368797;54;20955;-66
2021/04/29 03:59:29;;;;;;;2.62;1.30;;;14.40;68.00;;;;;;2345887;53;21424;-67
2021/04/29 04:01:55;;;;;;;2.70;1.45;;;14.40;68.00;;;;;;2346051;53;20971;-66
2021/04/29 04:04:22;;;;;;;3.25;1.70;;;14.40;68.00;;;;;;2357574;53;20932;-67
2021/04/29 04:06:48;;;;;;;3.25;1.60;;;14.40;67.90;;;;;;2349930;53;21702;-68
2021/04/29 04:09:14;;;;;;;4.03;1.70;;;14.30;67.80;;;;;;2360559;53;21019;-68
2021/04/29 04:11:40;;;;;;;3.30;1.58;;;14.30;67.80;;;;;;2413410;52;21815;-67
2021/04/29 04:14:07;;;;;;;3.78;2.05;;;14.30;67.70;;;;;;2369340;53;20904;-68
2021/04/29 04:16:42;;;;;;;3.17;2.00;;;14.30;67.70;;;;;;2365294;53;20970;-68
2021/04/29 04:19:08;;;;;;;3.47;1.90;;;14.20;67.30;;;;;;2360942;54;20940;-67
2021/04/29 04:21:34;;;;;;;6.60;2.05;;;14.20;67.60;;;;;;2359912;54;21710;-68
2021/04/29 04:24:01;;;;;;;3.45;2.17;;;14.10;67.40;;;;;;2359666;54;20947;-68
2021/04/29 04:26:27;;;;;;;4.57;1.75;;;14.10;67.40;;;;;;2357508;54;21650;-66
2021/04/29 04:28:54;;;;;;;4.18;2.03;;;14.10;67.50;;;;;;2355833;53;20944;-66
2021/04/29 04:31:20;;;;;;;4.95;1.95;;;14.00;67.60;;;;;;2574856;52;21020;-68
2021/04/29 04:33:46;;;;;;;5.12;2.08;;;14.00;67.60;;;;;;2333383;53;20969;-67
2021/04/29 04:36:13;;;;;;;4.00;2.35;;;14.00;67.60;;;;;;2331524;53;21011;-67
2021/04/29 04:38:39;;;;;;;4.07;2.05;;;13.90;67.70;;;;;;2372466;52;20979;-65
2021/04/29 04:41:05;;;;;;;4.32;2.08;;;13.90;67.70;;;;;;2480291;52;21533;-65
2021/04/29 04:43:46;;;;;;;4.68;2.50;;;13.90;67.90;;;;;;2328277;54;21440;-67
2021/04/29 04:46:13;;;;;;;4.62;2.72;;;13.90;67.70;;;;;;2369237;54;20957;-66
2021/04/29 04:48:39;;;;;;;4.65;2.60;;;13.90;68.10;;;;;;2363411;54;21003;-66
2021/04/29 04:51:06;;;;;;;4.75;2.72;;;13.90;68.20;;;;;;2364162;53;21730;-66
2021/04/29 04:53:36;;;;;;;5.05;2.45;;;13.90;68.50;;;;;;2364115;54;20967;-66
2021/04/29 04:56:02;;;;;;;3.95;2.60;;;13.90;68.50;;;;;;2363107;54;21918;-67
2021/04/29 04:58:43;;;;;;;4.32;2.40;;;13.90;68.80;;;;;;2344181;53;20920;-69
2021/04/29 05:01:09;;;;;;;4.10;2.30;;;13.90;68.60;;;;;;2474961;52;20987;-67
2021/04/29 05:03:36;;;;;;;4.45;2.40;;;14.00;69.10;;;;;;2345472;53;20996;-66
2021/04/29 05:06:02;;;;;;;6.00;3.03;;;14.00;69.20;;;;;;2348865;53;21457;-67
2021/04/29 05:08:28;;;;;;;4.22;2.83;;;14.00;69.20;;;;;;2343183;53;21285;-67
2021/04/29 05:10:54;;;;;;;6.80;3.08;;;14.00;69.40;;;;;;2487381;52;21521;-66
2021/04/29 05:13:23;;;;;;;4.50;2.80;;;14.00;69.40;;;;;;2363866;54;21448;-67
2021/04/29 05:15:49;;;;;;;4.32;2.70;;;14.00;69.50;;;;;;2363830;54;21031;-68
2021/04/29 05:18:15;;;;;;;6.07;2.33;;;14.10;69.60;;;;;;2363845;54;20940;-68
2021/04/29 05:20:41;;;;;;;6.82;3.15;;;14.10;69.70;;;;;;2362972;54;20987;-67
2021/04/29 05:23:07;;;;;;;4.28;2.72;;;14.10;69.70;;;;;;2363788;53;20936;-66
2021/04/29 05:25:34;;;;;;;11.48;3.33;;;14.10;69.70;;;;;;2364719;54;20959;-69
2021/04/29 05:28:01;;;;;;;4.75;3.08;;;14.20;69.90;;;;;;2396424;52;22049;-67
2021/04/29 05:30:27;;;;;;;6.20;4.15;;;14.20;70.00;;;;;;2615612;52;20948;-66
2021/04/29 05:32:54;;;;;;;5.82;4.10;;;14.20;70.20;;;;;;2363758;54;20991;-66
2021/04/29 05:35:21;;;;;;;5.40;3.67;;;14.30;70.40;;;;;;2611368;52;20956;-67
2021/04/29 05:37:47;;;;;;;5.32;3.62;;;14.30;70.60;;;;;;2356570;53;20988;-66
2021/04/29 05:40:13;;;;;;;5.43;3.72;;;14.40;70.80;;;;;;2567979;52;20936;-68
2021/04/29 05:42:40;;;;;;;5.70;3.37;;;14.40;70.80;;;;;;2361497;54;20947;-68
2021/04/29 05:45:09;;;;;;;6.62;3.67;;;14.50;70.80;;;;;;2350505;54;20969;-68
2021/04/29 05:47:35;;;;;;;5.85;3.85;;;14.50;70.80;;;;;;2342464;53;20932;-68
2021/04/29 05:50:04;;;;;;;5.93;4.05;;;14.60;70.90;;;;;;2494871;52;21460;-66
2021/04/29 05:52:31;;;;;;;7.75;4.57;;;14.60;71.00;;;;;;2366054;54;20948;-67
2021/04/29 05:54:57;;;;;;;9.05;5.47;;;14.70;71.20;;;;;;2366449;53;21018;-68
2021/04/29 05:57:24;;;;;;;6.93;4.43;;;14.80;70.60;;;;;;2372466;53;21013;-68
2021/04/29 05:59:50;;;;;;;9.13;4.40;;;14.80;70.90;;;;;;2341374;53;20940;-67
2021/04/29 06:02:16;;;;;;;5.28;3.60;;;14.90;71.00;;;;;;2363892;54;20954;-66
2021/04/29 06:04:42;;;;;;;8.18;4.97;;;14.90;71.00;;;;;;2365902;53;20932;-67
2021/04/29 06:07:10;;;;;;;7.35;4.35;;;15.00;70.90;;;;;;2366640;54;21022;-67
2021/04/29 06:09:36;;;;;;;8.10;3.85;;;15.00;70.80;;;;;;2366501;54;20956;-67
2021/04/29 06:12:03;;;;;;;6.43;3.70;;;15.10;70.90;;;;;;2365161;53;20948;-69
2021/04/29 06:14:29;;;;;;;8.48;5.22;;;15.10;70.60;;;;;;2348449;54;21034;-68
2021/04/29 06:16:56;;;;;;;8.10;4.45;;;15.20;70.70;;;;;;2540175;52;20967;-68
2021/04/29 06:19:22;;;;;;;5.68;3.58;;;15.30;70.90;;;;;;2366033;54;21003;-66
2021/04/29 06:21:49;;;;;;;6.93;4.50;;;15.30;71.10;;;;;;2366216;53;20932;-68
2021/04/29 06:24:16;;;;;;;9.82;4.97;;;15.40;71.00;;;;;;2358844;54;21104;-66
2021/04/29 06:26:42;;;;;;;8.75;4.68;;;15.50;71.40;;;;;;2352834;53;20992;-68
2021/04/29 06:29:10;;;;;;;6.28;4.15;;;15.50;70.50;;;;;;2366396;54;20920;-66
2021/04/29 06:31:37;;;;;;;7.20;4.35;;;15.60;70.90;;;;;;2614191;52;20920;-66
2021/04/29 06:34:04;;;;;;;6.50;3.97;;;15.60;71.00;;;;;;2345508;53;20932;-67
2021/04/29 06:36:30;;;;;;;6.95;4.22;;;15.70;71.40;;;;;;2369486;53;21423;-69
2021/04/29 06:38:57;;;;;;;6.82;4.30;;;15.80;71.30;;;;;;2617033;52;20972;-66
2021/04/29 06:41:23;;;;;;;8.15;4.82;;;15.90;71.20;;;;;;2372551;52;20978;-66
2021/04/29 06:43:53;;;;;;;9.20;5.30;;;15.90;70.50;;;;;;2617698;52;20994;-67
2021/04/29 06:46:19;;;;;;;8.07;5.15;;;16.00;70.00;;;;;;2366327;54;21023;-68
2021/04/29 06:48:46;;;;;;;7.85;4.80;;;16.00;69.60;;;;;;2364894;53;21015;-69
2021/04/29 06:51:13;;;;;;;7.90;4.82;;;16.00;69.10;;;;;;2366811;53;20947;-65
2021/04/29 06:53:53;;;;;;;8.32;5.18;;;16.00;69.20;;;;;;2608613;52;21087;-67
2021/04/29 06:56:19;;;;;;;9.98;5.57;;;16.00;68.90;;;;;;2366610;54;21790;-65
2021/04/29 06:58:46;;;;;;;8.02;5.47;;;16.00;68.70;;;;;;2346317;53;20986;-66
2021/04/29 07:01:13;;;;;;;8.55;5.93;;;15.90;68.60;;;;;;2366433;53;20912;-65
2021/04/29 07:03:39;;;;;;;11.23;6.15;;;15.90;68.20;;;;;;2617619;52;20986;-67
2021/04/29 07:06:05;;;;;;;8.05;4.95;;;15.90;67.90;;;;;;2367948;53;21477;-65
2021/04/29 07:08:32;;;;;;;9.20;5.60;;;16.00;68.00;;;;;;2615928;52;20906;-67
2021/04/29 07:10:58;;;;;;;8.05;5.53;;;15.90;67.90;;;;;;2366463;54;21840;-67
2021/04/29 07:13:24;;;;;;;8.48;6.05;;;15.90;68.00;;;;;;2366394;54;20947;-67
2021/04/29 07:15:50;;;;;;;8.20;5.22;;;15.90;67.70;;;;;;2366032;54;20912;-68
2021/04/29 07:18:18;;;;;;;9.43;5.87;;;15.90;68.00;;;;;;2366538;54;21679;-66
2021/04/29 07:20:44;;;;;;;11.23;6.60;;;15.80;68.10;;;;;;2365279;54;21000;-66
2021/04/29 07:23:10;;;;;;;9.75;6.12;;;15.80;68.10;;;;;;2347645;53;20950;-66
2021/04/29 07:25:37;;;;;;;10.43;6.22;;;15.90;67.80;;;;;;2617487;52;20912;-66
2021/04/29 07:28:04;;;;;;;9.50;6.05;;;15.80;67.60;;;;;;2365910;54;20939;-68
2021/04/29 07:30:31;;;;;;;8.82;5.43;;;15.80;67.50;;;;;;2365807;54;20911;-68
2021/04/29 07:32:58;;;;;;;8.05;5.75;;;15.80;68.00;;;;;;2357701;54;21967;-68
2021/04/29 07:35:25;;;;;;;8.93;5.90;;;15.80;67.90;;;;;;2372569;53;20906;-67
2021/04/29 07:37:51;;;;;;;9.35;6.18;;;15.90;67.50;;;;;;2340673;53;21854;-67
2021/04/29 07:40:18;;;;;;;8.27;5.72;;;15.80;67.70;;;;;;2609818;52;20926;-67
2021/04/29 07:42:44;;;;;;;8.85;5.78;;;15.80;68.00;;;;;;2353466;53;20944;-68
2021/04/29 07:45:11;;;;;;;7.80;4.60;;;15.80;68.00;;;;;;2364172;54;20947;-67
2021/04/29 07:47:37;;;;;;;;;;;15.90;68.70;;;;;;2359334;52;1229306;-66
2021/04/29 07:50:06;;;;;;;9.25;5.15;;;15.90;67.10;;;;;;2366751;54;20117;-68
2021/04/29 07:52:34;;;;;;;6.85;4.57;;;15.90;68.30;;;;;;2365775;53;21043;-69
2021/04/29 07:55:01;;;;;;;8.70;4.53;;;15.90;69.40;;;;;;2365964;53;21984;-66
2021/04/29 07:57:28;;;;;;;7.37;5.10;;;16.00;68.90;;;;;;2365943;53;20947;-68
2021/04/29 07:59:54;;;;;;;8.70;6.22;;;15.90;68.70;;;;;;2366019;54;21474;-66
2021/04/29 08:02:21;;;;;;;8.82;6.15;;;15.90;68.30;;;;;;2328001;54;20965;-69
2021/04/29 08:04:47;;;;;;;9.05;5.95;;;15.90;68.60;;;;;;2364686;54;20971;-66
2021/04/29 08:07:38;;;;;;;8.32;5.50;;;16.00;69.00;;;;;;2365932;54;21002;-65
2021/04/29 08:10:07;;;;;;;9.50;6.25;;;16.00;68.20;;;;;;2618214;52;20995;-66
2021/04/29 08:12:33;;;;;;;9.23;6.53;;;16.00;68.70;;;;;;2365882;54;21349;-67
2021/04/29 08:15:00;;;;;;;9.48;6.10;;;16.10;68.50;;;;;;2462419;52;20939;-67
2021/04/29 08:17:27;;;;;;;9.57;5.70;;;16.10;69.10;;;;;;2366121;53;21368;-68
2021/04/29 08:20:29;;;;;;;9.55;6.15;;;16.10;69.40;;;;;;2345992;53;21551;-66
2021/04/29 08:22:56;;;;;;;9.68;6.43;;;16.20;68.50;;;;;;2392890;53;20964;-67
2021/04/29 08:25:25;;;;;;;12.07;7.40;;;16.30;68.90;;;;;;2366206;54;20964;-67
2021/04/29 08:27:51;;;;;;;8.38;6.28;;;16.30;68.60;;;;;;2365614;54;20960;-67
2021/04/29 08:30:18;;;;;;;9.75;6.03;;;16.30;68.90;;;;;;2368726;53;21480;-69
2021/04/29 08:32:44;;;;;;;6.62;5.20;;;16.40;69.30;;;;;;2617361;52;21086;-67
2021/04/29 08:35:11;;;;;;;8.90;6.03;;;16.40;69.60;;;;;;2345335;53;20953;-66
2021/04/29 08:37:38;;;;;;;8.30;5.60;;;16.50;69.70;;;;;;2367693;54;20968;-67
2021/04/29 08:40:07;;;;;;;7.07;5.60;;;16.60;69.90;;;;;;2397425;53;20983;-67
2021/04/29 08:42:34;;;;;;;8.82;5.43;;;16.60;70.10;;;;;;2617553;52;21027;-68
2021/04/29 08:45:03;;;;;;;9.52;5.70;;;16.70;70.20;;;;;;2553913;52;20964;-69
2021/04/29 08:47:29;;;;;;;8.60;5.97;;;16.80;70.00;;;;;;2366164;54;20994;-67
2021/04/29 08:50:13;;;;;;;9.43;5.95;;;16.90;70.10;;;;;;2366680;54;20948;-69
2021/04/29 08:52:39;;;;;;;8.23;5.43;;;17.00;70.10;;;;;;2366112;54;21011;-69
2021/04/29 08:55:13;;;;;;;9.48;5.70;;;17.10;70.40;;;;;;2616139;52;20932;-67
2021/04/29 08:57:41;;;;;;;9.05;5.60;;;17.20;70.20;;;;;;2365670;53;21491;-69
2021/04/29 09:00:09;;;;;;;9.10;6.05;;;17.30;69.70;;;;;;2612330;52;21016;-67
2021/04/29 09:03:22;;;;;;;8.60;5.00;;;17.40;69.80;;;;;;2365426;53;20916;-69
2021/04/29 09:05:56;;;;;;;8.80;5.30;;;17.50;68.80;;;;;;2588750;52;20991;-67
2021/04/29 09:08:26;;;;;;;8.23;5.03;;;17.60;69.20;;;;;;2365744;54;20952;-69
2021/04/29 09:10:52;;;;;;;6.47;5.10;;;17.70;69.70;;;;;;2365942;54;20936;-69
2021/04/29 09:13:20;;;;;;;8.30;4.93;;;17.70;69.10;;;;;;2365917;54;20919;-69
2021/04/29 09:15:47;;;;;;;14.30;5.60;;;17.80;69.30;;;;;;2365279;54;21003;-69
2021/04/29 09:18:17;;;;;;;10.15;5.80;;;17.90;69.30;;;;;;2363001;54;21039;-66
2021/04/29 09:20:57;;;;;;;8.60;5.68;;;17.90;69.00;;;;;;2503442;52;20991;-68
2021/04/29 09:23:29;;;;;;;10.02;5.50;;;18.00;67.70;;;;;;2359431;54;20991;-69
2021/04/29 09:26:00;;;;;;;7.82;5.43;;;18.10;68.20;;;;;;2490353;53;21002;-67
2021/04/29 09:28:50;;;;;;;8.15;4.95;;;18.10;67.70;;;;;;2357810;53;20987;-70
2021/04/29 09:31:26;;;;;;;9.10;5.22;;;18.20;67.00;;;;;;2334928;54;20923;-65
2021/04/29 09:33:54;;;;;;;8.60;4.90;;;18.20;67.40;;;;;;2343062;54;20951;-68
2021/04/29 09:36:30;;;;;;;7.18;5.45;;;18.30;67.40;;;;;;2588569;53;20992;-65
2021/04/29 09:39:08;;;;;;;8.48;5.97;;;18.30;66.80;;;;;;2317616;54;20921;-66
2021/04/29 09:41:39;;;;;;;8.52;5.87;;;18.30;66.30;;;;;;2531189;52;21034;-67
2021/04/29 09:44:09;;;;;;;9.93;5.57;;;18.30;65.20;;;;;;2366144;54;20964;-68
2021/04/29 09:47:00;;;;;;;6.70;4.60;;;18.30;65.60;;;;;;2618138;52;20912;-69
2021/04/29 09:49:34;;;;;;;9.07;5.72;;;18.30;65.00;;;;;;2346404;54;21380;-66
2021/04/29 09:52:01;;;;;;;8.43;5.87;;;18.40;66.10;;;;;;2352662;53;20991;-66
2021/04/29 09:54:32;;;;;;;9.32;5.10;;;18.40;66.20;;;;;;2505051;52;20990;-66
2021/04/29 09:57:04;;;;;;;8.15;5.35;;;18.50;65.70;;;;;;2360579;53;21432;-68
2021/04/29 09:59:30;;;;;;;7.60;5.25;;;18.50;66.20;;;;;;2367045;53;20931;-66
2021/04/29 10:02:00;;;;;;;7.70;4.85;;;18.60;67.00;;;;;;2352395;53;21476;-66
2021/04/29 10:04:29;;;;;;;8.40;5.50;;;18.70;67.20;;;;;;2346942;53;21383;-67
2021/04/29 10:06:56;;;;;;;6.82;4.78;;;18.80;66.80;;;;;;2588693;52;20999;-66
2021/04/29 10:09:24;;;;;;;9.60;5.85;;;18.90;67.20;;;;;;2369325;53;20954;-67
2021/04/29 10:12:12;;;;;;;7.40;5.35;;;19.00;64.10;;;;;;2348078;53;20959;-68
2021/04/29 10:14:46;;;;;;;8.48;4.82;;;19.10;63.50;;;;;;2368844;53;20987;-67
2021/04/29 10:17:14;;;;;;;8.52;5.18;;;19.20;66.30;;;;;;2413166;52;20976;-69
2021/04/29 10:19:44;;;;;;;8.25;5.32;;;19.40;68.00;;;;;;2366632;53;20987;-69
2021/04/29 10:22:11;;;;;;;7.53;5.45;;;19.60;68.00;;;;;;2365988;54;20931;-67
2021/04/29 10:24:40;;;;;;;8.13;5.43;;;19.80;67.80;;;;;;2365791;54;20936;-69
2021/04/29 10:27:09;;;;;;;8.90;6.05;;;20.00;65.10;;;;;;2368970;54;21372;-68
2021/04/29 10:29:36;;;;;;;10.85;5.50;;;20.10;63.90;;;;;;2342881;53;20915;-66
2021/04/29 10:32:03;;;;;;;9.23;6.00;;;20.30;65.10;;;;;;2464339;52;21003;-67
2021/04/29 10:34:39;;;;;;;8.80;5.22;;;20.40;63.10;;;;;;2381571;52;20987;-68
2021/04/29 10:37:23;;;;;;;8.65;5.60;;;20.60;62.10;;;;;;2354004;53;20954;-68
2021/04/29 10:40:03;;;;;;;10.68;5.40;;;20.70;61.20;;;;;;2505623;52;21007;-67
2021/04/29 10:42:30;;;;;;;6.05;4.70;;;20.90;62.50;;;;;;2369384;53;20991;-68
2021/04/29 10:44:58;;;;;;;8.82;4.72;;;21.10;65.10;;;;;;2363044;54;21801;-69
2021/04/29 10:47:31;;;;;;;7.85;5.68;;;21.30;65.60;;;;;;2574606;52;20928;-69
2021/04/29 10:50:22;;;;;;;10.27;5.62;;;21.50;62.20;;;;;;2365859;53;20959;-67
2021/04/29 10:52:56;;;;;;;6.03;4.45;;;21.80;61.60;;;;;;2366479;54;20956;-68
2021/04/29 10:55:36;;;;;;;7.40;4.40;;;21.80;61.70;;;;;;2366031;53;21010;-70
2021/04/29 10:58:04;;;;;;;7.22;4.60;;;21.90;61.00;;;;;;2368063;54;21496;-66
2021/04/29 11:00:52;;;;;;;6.80;3.95;;;21.90;61.70;;;;;;2346366;54;20943;-67
2021/04/29 11:03:28;;;;;;;7.18;4.20;;;21.90;59.50;;;;;;2366626;54;20936;-69
2021/04/29 11:06:10;;;;;;;7.50;4.80;;;22.00;60.00;;;;;;2366610;54;21008;-67
2021/04/29 11:08:41;;;;;;;7.93;4.62;;;21.90;59.60;;;;;;2595625;52;20940;-69
2021/04/29 11:11:25;;;;;;;10.35;4.43;;;21.80;60.30;;;;;;2350633;53;21004;-68
2021/04/29 11:14:04;;;;;;;9.35;4.82;;;21.80;57.80;;;;;;2356734;54;20936;-70
2021/04/29 11:16:49;;;;;;;7.15;4.50;;;21.80;58.40;;;;;;2339287;53;21006;-69
2021/04/29 11:19:38;;;;;;;7.15;4.68;;;21.80;59.20;;;;;;2346561;53;20931;-69
2021/04/29 11:22:06;;;;;;;7.03;4.68;;;21.80;59.20;;;;;;2369060;54;21497;-67
2021/04/29 11:24:37;;;;;;;6.65;4.47;;;21.80;59.60;;;;;;2369922;53;21059;-70
2021/04/29 11:27:06;;;;;;;6.28;4.18;;;21.90;60.00;;;;;;2569485;52;21417;-67
2021/04/29 11:29:39;;;;;;;8.15;4.50;;;21.90;60.90;;;;;;2346183;54;20932;-66
2021/04/29 11:32:05;;;;;;;7.70;4.12;;;22.00;60.30;;;;;;2345649;54;20943;-67
2021/04/29 11:34:42;;;;;;;7.07;4.62;;;22.10;62.10;;;;;;2589829;52;21331;-69
2021/04/29 11:37:09;;;;;;;5.45;3.85;;;22.20;61.40;;;;;;2343069;54;21004;-67
2021/04/29 11:39:35;;;;;;;5.15;3.15;;;22.30;64.00;;;;;;2500737;52;20984;-66
2021/04/29 11:42:01;;;;;;;6.87;3.75;;;22.50;64.90;;;;;;2345076;53;21730;-68
2021/04/29 11:44:29;;;;;;;5.18;3.00;;;22.70;62.30;;;;;;2342494;54;21587;-69
2021/04/29 11:46:55;;;;;;;4.18;2.58;;;22.80;62.60;;;;;;2576159;52;20976;-68
2021/04/29 11:49:21;;;;;;;5.78;2.28;;;22.90;60.70;;;;;;2343078;54;20967;-66
2021/04/29 11:51:51;;;;;;;5.90;2.40;;;23.00;59.90;;;;;;2589399;53;20959;-68
2021/04/29 11:54:18;;;;;;;3.58;1.70;;;23.00;59.10;;;;;;2560741;53;21003;-68
2021/04/29 11:56:49;;;;;;;5.00;1.80;;;22.90;58.70;;;;;;2327321;53;20944;-70
2021/04/29 11:59:16;;;;;;;4.50;1.80;;;22.90;58.00;;;;;;2347738;53;20944;-66
2021/04/29 12:01:43;;;;;;;4.28;2.08;;;22.80;58.20;;;;;;2341203;53;20983;-66
2021/04/29 12:04:19;;;;;;;4.45;2.12;;;22.60;57.90;;;;;;2360939;53;21039;-69
2021/04/29 12:06:53;;;;;;;4.32;2.20;;;22.50;56.10;;;;;;2362150;54;21563;-68
2021/04/29 12:09:20;;;;;;;4.03;2.30;;;22.30;57.00;;;;;;2350065;53;21011;-69
2021/04/29 12:11:53;;;;;;;4.53;2.10;;;22.20;57.50;;;;;;2366182;53;20990;-67
2021/04/29 12:14:27;;;;;;;4.45;2.45;;;22.10;57.70;;;;;;2365620;53;21334;-67
2021/04/29 12:17:00;;;;;;;4.05;1.95;;;21.90;56.60;;;;;;2363632;52;21802;-68
2021/04/29 12:19:28;;;;;;;5.68;2.65;;;21.80;56.90;;;;;;2358285;53;20952;-66
2021/04/29 12:21:55;;;;;;;4.03;2.03;;;21.70;56.60;;;;;;2365872;54;20952;-67
2021/04/29 12:24:22;;;;;;;4.07;1.73;;;21.70;58.00;;;;;;2366489;53;20952;-67
2021/04/29 12:26:51;;;;;;;3.60;1.90;;;21.70;59.30;;;;;;2349591;53;21432;-69
2021/04/29 12:29:23;;;;;;;4.37;2.20;;;21.70;60.70;;;;;;2347497;53;20995;-67
2021/04/29 12:31:53;;;;;;;4.20;2.12;;;21.80;59.80;;;;;;2364693;54;20943;-68
2021/04/29 12:34:20;;;;;;;3.78;1.87;;;21.90;60.00;;;;;;2368831;53;21073;-69
2021/04/29 12:37:02;;;;;;;5.62;2.10;;;22.00;59.60;;;;;;2346057;54;21028;-70
2021/04/29 12:39:30;;;;;;;3.15;1.50;;;22.20;59.20;;;;;;2610522;52;20939;-66
2021/04/29 12:41:58;;;;;;;5.80;1.90;;;22.30;59.50;;;;;;2366081;54;21610;-71
2021/04/29 12:44:45;;;;;;;3.37;1.98;;;22.40;59.80;;;;;;2365426;54;20995;-67
2021/04/29 12:47:21;;;;;;;3.22;1.60;;;22.50;57.50;;;;;;2407294;52;21460;-66
2021/04/29 12:50:03;;;;;;;3.05;1.55;;;22.50;58.40;;;;;;2365506;53;21381;-68
2021/04/29 12:52:29;;;;;;;4.40;1.90;;;22.50;56.80;;;;;;2615078;52;20935;-68
2021/04/29 12:54:56;;;;;;;3.55;1.90;;;22.50;58.40;;;;;;2363759;54;21003;-70
2021/04/29 12:57:27;;;;;;;2.87;1.55;;;22.50;59.10;;;;;;2343725;53;21878;-68